Latest Weather Observations for Yunta

IDS60801

Issued at 6:31 pm CST Friday 26 May 2017 (issued every 30 minutes, with the page automatically refreshed every 10 minutes)

About weather observations | Map of weather stations | Latest weather observations for SA | Other Formats
Station Details ID: 020062 Name: YUNTA AIRSTRIP Lat: -32.57 Lon: 139.56 Height: 300.0 m
Data from the previous 72 hours. | See also: Recent months at Yunta
Date/Time
CST
Temp
°C
App
Temp
°C
Dew
Point
°C
Rel
Hum
%
Delta-T
°C
Wind Press
QNH
hPa
Press
MSL
hPa
Rain since
9am
mm
Dir  Spd
km/h
Gust
km/h
Spd
kts
Gust
kts
26/06:30pm 13.1 9.7 4.0 54 4.2 N 11 13 6 7 1019.1 1019.0 0.0
26/06:00pm 13.5 10.1 3.8 52 4.5 N 11 11 6 6 1018.6 1018.6 0.0
26/05:30pm 15.7 12.7 4.1 46 5.5 N 9 9 5 5 1018.4 1018.4 0.0
26/05:00pm 18.2 15.2 4.0 39 6.8 N 9 13 5 7 1018.4 1018.4 0.0
26/04:30pm 19.3 16.3 3.9 36 7.4 N 9 15 5 8 1018.4 1018.4 0.0
26/04:00pm 19.7 15.9 3.8 35 7.7 N 13 22 7 12 1018.4 1018.4 0.0
26/03:30pm 20.2 17.2 3.9 34 7.9 N 9 15 5 8 1018.6 1018.6 0.0
26/03:00pm 20.5 17.1 4.1 34 8.0 NNW 11 19 6 10 1018.5 1018.5 0.0
26/02:30pm 20.6 17.3 4.6 35 7.9 NNW 11 26 6 14 1018.6 1018.6 0.0
26/02:00pm 20.0 17.1 4.5 36 7.6 N 9 15 5 8 1019.1 1019.0 0.0
26/01:30pm 20.3 17.7 4.4 35 7.8 ENE 7 17 4 9 1019.6 1019.5 0.0
26/01:00pm 19.7 16.4 4.6 37 7.4 N 11 17 6 9 1020.1 1020.0 0.0
26/12:30pm 20.1 17.8 5.0 37 7.5 N 6 13 3 7 1020.5 1020.4 0.0
26/12:00pm 19.8 17.4 5.1 38 7.3 NNW 7 13 4 7 1021.1 1021.1 0.0
26/11:30am 19.2 16.9 5.6 41 6.8 N 7 11 4 6 1021.8 1021.8 0.0
26/11:00am 18.7 16.6 5.9 43 6.4 NNE 6 9 3 5 1022.3 1022.3 0.0
26/10:30am 17.3 15.0 5.6 46 5.7 ENE 7 11 4 6 1022.8 1022.7 0.0
26/10:00am 16.6 15.2 5.6 48 5.4 ENE 2 6 1 3 1023.1 1023.0 0.0
26/09:30am 14.1 13.0 5.2 55 4.2 CALM 0 4 0 2 1023.1 1023.0 0.0
26/09:00am 12.1 10.8 4.3 59 3.6 CALM 0 0 0 0 1023.2 1023.1 0.0
26/08:30am 9.3 7.9 3.7 68 2.5 CALM 0 0 0 0 1023.0 1022.9 0.0
26/08:00am 6.8 5.3 2.9 76 1.7 CALM 0 0 0 0 1022.9 1022.8 0.0
26/07:30am 2.9 -0.8 0.1 82 1.1 N 9 11 5 6 1022.6 1022.5 0.0
26/07:00am 1.6 -0.5 -0.6 85 0.8 CALM 0 0 0 0 1022.3 1022.3 0.0
26/06:30am 1.8 -0.4 -1.3 80 1.1 CALM 0 0 0 0 1022.2 1022.2 0.0
26/06:00am 2.3 0.2 -1.0 79 1.2 CALM 0 0 0 0 1021.8 1021.8 0.0
26/05:30am 2.7 0.7 -0.2 81 1.1 CALM 0 0 0 0 1021.6 1021.6 0.0
26/05:00am 3.3 0.7 0.7 83 1.0 NW 4 6 2 3 1021.5 1021.5 0.0
26/04:30am 2.5 -0.4 -0.8 79 1.2 NNE 4 7 2 4 1021.5 1021.5 0.0
26/04:00am 3.5 1.2 0.6 81 1.1 NE 2 4 1 2 1021.4 1021.4 0.0
26/03:30am 4.3 1.2 1.3 81 1.2 N 7 9 4 5 1021.3 1021.3 0.0
26/03:00am 4.2 2.4 1.2 81 1.2 CALM 0 4 0 2 1021.6 1021.6 0.0
26/02:30am 3.6 1.6 0.0 77 1.4 CALM 0 0 0 0 1021.7 1021.7 0.0
26/02:00am 4.5 2.7 1.4 80 1.2 CALM 0 0 0 0 1021.8 1021.8 0.0
26/01:30am 5.0 3.2 1.5 78 1.4 CALM 0 0 0 0 1021.8 1021.8 0.0
26/01:00am 5.5 3.4 1.8 77 1.5 NNW 2 6 1 3 1022.0 1022.0 0.0
26/12:30am 5.9 3.8 2.0 76 1.6 WSW 2 4 1 2 1022.1 1022.1 0.0
26/12:00am 6.8 4.5 2.7 75 1.7 SSW 4 7 2 4 1022.3 1022.3 0.0
 
Date/Time
CST
Temp
°C
App
Temp
°C
Dew
Point
°C
Rel
Hum
%
Delta-T
°C
Wind Press
QNH
hPa
Press
MSL
hPa
Rain since
9am
mm
Dir  Spd
km/h
Gust
km/h
Spd
kts
Gust
kts
25/11:30pm 7.9 4.4 3.6 74 1.9 N 11 13 6 7 1022.3 1022.3 0.0
25/11:00pm 7.6 4.4 3.1 73 1.9 N 9 9 5 5 1022.5 1022.4 0.0
25/10:30pm 8.1 5.3 3.2 71 2.1 NNE 7 7 4 4 1022.5 1022.4 0.0
25/10:00pm 9.3 6.9 4.3 71 2.2 NNE 6 7 3 4 1022.5 1022.4 0.0
25/09:30pm 9.9 8.6 4.3 68 2.5 CALM 0 0 0 0 1022.5 1022.4 0.0
25/09:00pm 10.4 8.6 3.7 63 3.0 WSW 2 6 1 3 1022.3 1022.3 0.0
25/08:30pm 11.4 10.2 4.4 62 3.2 CALM 0 4 0 2 1022.3 1022.3 0.0
25/08:00pm 11.7 9.3 4.4 61 3.4 WSW 6 7 3 4 1022.2 1022.2 0.0
25/07:30pm 12.3 11.0 4.3 58 3.7 CALM 0 0 0 0 1022.1 1022.1 0.0
25/07:00pm 12.4 10.3 3.9 56 3.9 W 4 6 2 3 1021.9 1021.9 0.0
25/06:30pm 12.2 10.1 3.7 56 3.8 WSW 4 9 2 5 1021.7 1021.7 0.0
25/06:00pm 13.3 10.3 3.9 53 4.3 W 9 9 5 5 1021.4 1021.4 0.0
25/05:30pm 15.7 12.6 3.8 45 5.6 WSW 9 11 5 6 1021.0 1021.0 0.0
25/05:00pm 18.2 15.7 4.7 41 6.6 SW 7 13 4 7 1020.8 1020.7 0.0
25/04:30pm 19.3 16.0 4.6 38 7.2 SW 11 17 6 9 1020.8 1020.7 0.0
25/04:00pm 19.7 16.5 5.0 38 7.3 WSW 11 19 6 10 1020.9 1020.9 0.0
25/03:30pm 19.6 16.4 4.9 38 7.2 W 11 17 6 9 1020.9 1020.9 0.0
25/03:00pm 19.0 14.9 4.4 38 7.1 W 15 24 8 13 1021.0 1021.0 0.0
25/02:30pm 19.5 15.7 4.0 36 7.5 W 13 24 7 13 1020.8 1020.7 0.0
25/02:00pm 19.5 16.2 4.4 37 7.4 W 11 17 6 9 1021.0 1021.0 0.0
25/01:30pm 19.1 16.4 5.6 41 6.7 W 9 20 5 11 1021.4 1021.4 0.0
25/01:00pm 18.6 15.2 5.8 43 6.4 W 13 19 7 10 1021.9 1021.9 0.0
25/12:30pm 19.4 17.0 6.8 44 6.4 W 9 17 5 9 1022.2 1022.2 0.0
25/12:00pm 19.3 15.6 6.4 43 6.5 NNW 15 19 8 10 1022.7 1022.6 0.0
25/11:30am 17.9 15.2 7.3 50 5.4 W 11 15 6 8 1023.1 1023.0 0.0
25/11:00am 18.5 17.1 7.3 48 5.7 ESE 4 6 2 3 1023.2 1023.1 0.0
25/10:30am 17.7 16.5 8.0 53 5.0 NNW 4 9 2 5 1023.5 1023.4 0.0
25/10:00am 16.2 15.3 7.9 58 4.2 NNW 2 6 1 3 1023.6 1023.5 0.0
25/09:30am 14.4 13.8 7.5 63 3.4 CALM 0 0 0 0 1023.7 1023.7 0.0
25/09:00am 12.3 11.6 6.8 69 2.7 CALM 0 0 0 0 1023.7 1023.7 0.0
25/08:30am 9.2 8.2 5.4 77 1.7 CALM 0 0 0 0 1023.5 1023.4 0.0
25/08:00am 7.0 5.8 4.7 85 1.0 CALM 0 0 0 0 1023.4 1023.3 0.0
25/07:30am 4.3 2.3 2.3 87 0.8 NNE 2 2 1 1 1023.2 1023.1 0.0
25/07:00am 4.5 1.8 2.8 89 0.7 NNW 6 9 3 5 1022.9 1022.8 0.0
25/06:30am 3.5 0.7 1.9 89 0.6 N 6 7 3 4 1022.6 1022.5 0.0
25/06:00am 3.3 1.5 1.5 88 0.7 CALM 0 4 0 2 1022.5 1022.4 0.0
25/05:30am 3.7 0.8 1.6 86 0.8 WSW 6 7 3 4 1022.2 1022.2 0.0
25/05:00am 5.8 3.2 4.0 88 0.8 N 7 7 4 4 1022.0 1022.0 0.0
25/04:30am 6.0 2.7 4.5 90 0.7 NNE 11 13 6 7 1022.0 1022.0 0.0
25/04:00am 3.8 0.8 1.8 87 0.8 N 7 11 4 6 1022.1 1022.1 0.0
25/03:30am 4.0 1.9 1.9 86 0.8 ENE 2 6 1 3 1022.1 1022.1 0.0
25/03:00am 4.6 2.6 2.3 85 0.9 NNE 2 4 1 2 1022.1 1022.1 0.0
25/02:30am 4.9 3.4 3.2 89 0.7 CALM 0 4 0 2 1022.0 1022.0 0.0
25/02:00am 5.7 4.3 3.7 87 0.9 CALM 0 0 0 0 1022.2 1022.2 0.0
25/01:30am 4.8 3.2 2.2 83 1.1 CALM 0 0 0 0 1022.2 1022.2 0.0
25/01:00am 5.9 4.1 3.4 84 1.1 ENE 2 4 1 2 1022.3 1022.3 0.0
25/12:30am 7.3 4.1 5.1 86 1.0 N 11 13 6 7 1022.1 1022.1 0.0
25/12:00am 6.6 3.9 3.9 83 1.2 NNW 7 9 4 5 1022.2 1022.2 0.0
 
Date/Time
CST
Temp
°C
App
Temp
°C
Dew
Point
°C
Rel
Hum
%
Delta-T
°C
Wind Press
QNH
hPa
Press
MSL
hPa
Rain since
9am
mm
Dir  Spd
km/h
Gust
km/h
Spd
kts
Gust
kts
24/11:30pm 6.2 3.6 3.4 82 1.2 NNE 6 7 3 4 1022.5 1022.4 0.0
24/11:00pm 6.7 4.2 3.5 80 1.4 ENE 6 7 3 4 1022.5 1022.4 0.0
24/10:30pm 8.3 6.8 5.1 80 1.4 ENE 2 4 1 2 1022.6 1022.5 0.0
24/10:00pm 8.1 6.1 4.3 77 1.7 ENE 4 6 2 3 1022.6 1022.5 0.0
24/09:30pm 9.9 8.0 5.1 72 2.2 SSW 4 6 2 3 1022.6 1022.5 0.0
24/09:00pm 10.3 7.7 5.9 74 2.1 WSW 9 11 5 6 1022.8 1022.7 0.0
24/08:30pm 11.2 8.3 6.3 72 2.3 WSW 11 13 6 7 1022.7 1022.6 0.0
24/08:00pm 10.6 8.3 5.6 71 2.3 WSW 7 9 4 5 1022.6 1022.5 0.0
24/07:30pm 10.8 8.6 5.3 69 2.5 WSW 6 6 3 3 1022.5 1022.4 0.0
24/07:00pm 11.0 9.4 4.5 64 3.0 WSW 2 4 1 2 1022.3 1022.3 0.0
24/06:30pm 12.7 10.0 5.8 63 3.3 SW 9 11 5 6 1021.9 1021.9 0.0
24/06:00pm 14.5 11.9 6.3 58 4.0 SW 9 11 5 6 1021.6 1021.6 0.0
24/05:30pm 16.4 14.0 6.8 53 4.8 SSW 9 13 5 7 1021.2 1021.2 0.0
24/05:00pm 17.9 15.0 6.7 48 5.7 SSW 11 17 6 9 1021.0 1021.0 0.0
24/04:30pm 18.9 15.2 6.4 44 6.3 SSW 15 20 8 11 1020.9 1020.9 0.0
24/04:00pm 19.5 16.2 6.6 43 6.6 SSW 13 22 7 12 1020.9 1020.9 0.0
24/03:30pm 19.9 16.2 6.3 41 6.9 SW 15 20 8 11 1020.5 1020.4 0.0
24/03:00pm 20.0 15.9 6.4 41 6.9 SSW 17 24 9 13 1020.4 1020.3 0.0
24/02:30pm 20.1 15.9 5.7 39 7.2 SW 17 26 9 14 1020.3 1020.2 0.0
24/02:00pm 19.8 16.5 6.5 42 6.8 SW 13 20 7 11 1020.4 1020.3 0.0
24/01:30pm 19.5 15.6 6.9 44 6.4 SW 17 24 9 13 1020.5 1020.4 0.0
24/01:00pm 19.4 15.1 7.2 45 6.3 SW 19 30 10 16 1020.9 1020.9 0.0
24/12:30pm 19.0 15.0 6.8 45 6.2 WSW 17 28 9 15 1021.2 1021.2 0.0
24/12:00pm 18.6 14.5 8.0 50 5.5 W 19 26 10 14 1021.5 1021.5 0.0
24/11:30am 17.9 14.1 7.6 51 5.3 WSW 17 28 9 15 1021.9 1021.9 0.0
24/11:00am 17.1 13.2 8.5 57 4.5 WSW 19 28 10 15 1022.1 1022.1 0.0
24/10:30am 16.6 12.9 9.3 62 3.8 WSW 19 28 10 15 1022.2 1022.2 0.0
24/10:00am 15.5 11.8 9.4 67 3.2 WSW 19 28 10 15 1022.2 1022.2 0.0
24/09:30am 15.0 12.0 9.4 69 2.9 W 15 19 8 10 1022.0 1022.0 0.0
24/09:00am 13.9 10.5 9.3 74 2.4 W 17 22 9 12 1022.0 1022.0 0.2
24/08:30am 13.2 11.0 9.3 77 2.0 W 11 15 6 8 1021.9 1021.9 0.2
24/08:00am 11.9 10.3 8.7 81 1.6 W 7 9 4 5 1021.7 1021.7 0.2
24/07:30am 10.9 8.0 8.3 84 1.3 WNW 13 17 7 9 1021.4 1021.4 0.2
24/07:00am 9.8 7.1 7.4 85 1.2 WNW 11 15 6 8 1021.2 1021.2 0.2
24/06:30am 9.8 8.8 7.2 84 1.2 W 2 4 1 2 1020.9 1020.9 0.2
24/06:00am 10.5 8.6 7.4 81 1.5 WNW 7 11 4 6 1020.6 1020.5 0.2
24/05:30am 11.3 7.0 7.8 79 1.7 WNW 20 24 11 13 1020.0 1019.9 0.2
24/05:00am 12.0 7.3 7.9 76 2.0 WNW 22 30 12 16 1019.6 1019.5 0.2
24/04:30am 12.1 7.8 7.8 75 2.1 WNW 20 28 11 15 1019.6 1019.5 0.2
24/04:00am 9.8 5.7 6.2 78 1.7 WNW 17 19 9 10 1020.0 1019.9 0.2
24/03:30am 7.8 4.5 4.4 79 1.5 NW 11 13 6 7 1020.2 1020.1 0.2
24/03:00am 7.4 4.3 3.6 77 1.6 NW 9 9 5 5 1020.2 1020.1 0.2
24/02:30am 7.0 4.4 3.4 78 1.5 NW 6 7 3 4 1020.0 1019.9 0.2
24/02:00am 7.0 3.9 3.4 78 1.6 W 9 11 5 6 1020.0 1019.9 0.2
24/01:30am 5.6 3.6 2.4 80 1.3 W 2 4 1 2 1020.0 1019.9 0.2
24/01:00am 6.1 4.7 3.3 82 1.2 CALM 0 2 0 1 1019.9 1019.8 0.2
24/12:30am 6.6 4.8 3.2 79 1.4 WSW 2 4 1 2 1019.8 1019.7 0.2
24/12:00am 7.1 5.0 3.7 79 1.5 NW 4 6 2 3 1019.8 1019.7 0.2
 
Date/Time
CST
Temp
°C
App
Temp
°C
Dew
Point
°C
Rel
Hum
%
Delta-T
°C
Wind Press
QNH
hPa
Press
MSL
hPa
Rain since
9am
mm
Dir  Spd
km/h
Gust
km/h
Spd
kts
Gust
kts
23/11:30pm 6.8 5.3 3.1 77 1.6 CALM 0 0 0 0 1019.9 1019.8 0.2
23/11:00pm 8.6 5.6 4.0 73 2.0 NNW 9 13 5 7 1019.9 1019.8 0.2
23/10:30pm 9.0 5.7 4.6 74 2.0 N 11 13 6 7 1019.9 1019.8 0.2
23/10:00pm 8.5 6.5 4.3 75 1.9 N 4 11 2 6 1019.9 1019.8 0.2
23/09:30pm 9.0 6.5 3.8 70 2.3 NW 6 9 3 5 1019.8 1019.7 0.2
23/09:00pm 8.9 7.2 3.9 71 2.2 NW 2 6 1 3 1019.4 1019.3 0.2
23/08:30pm 10.1 6.8 4.7 69 2.5 WNW 11 13 6 7 1019.3 1019.2 0.2
23/08:00pm 10.9 8.4 5.0 67 2.7 W 7 9 4 5 1019.3 1019.2 0.2
23/07:30pm 11.6 8.3 4.8 63 3.1 W 11 13 6 7 1019.0 1018.9 0.2
23/07:00pm 13.0 9.1 5.4 60 3.6 W 15 19 8 10 1018.5 1018.5 0.2

Other Formats:

Comma delimited format used in spreadsheet applications
http://www.bom.gov.au/fwo/IDS60801/IDS60801.94684.axf

JavaScript Object Notation format (JSON) in row-major order
http://www.bom.gov.au/fwo/IDS60801/IDS60801.94684.json